This is the latest recevied weather packets stored in our database for station/object MKSRDG. If no packets are shown the sender has not sent any weather packets the latest 1 day(s).
| Time | Temp. | Humidity | Pressure | Rain* | Wind** | Luminosity | Snow |
|---|---|---|---|---|---|---|---|
| 1778114383 | 18.33° C | 66% | 1019.1 hPa | 0 mm | - | 380 W/m² | - |
| 1778113483 | 18.89° C | 67% | 1019 hPa | 0 mm | - | 485 W/m² | - |
| 1778112583 | 18.89° C | 67% | 1019 hPa | 0 mm | - | 237 W/m² | - |
| 1778089184 | 15° C | 85% | 1020.2 hPa | 0 mm | - | 872 W/m² | - |
| 1778088284 | 13.33° C | 91% | 1020 hPa | 0 mm | - | 758 W/m² | - |
| 1778087384 | 12.78° C | 93% | 1019.9 hPa | 0 mm | - | 204 W/m² | - |
| 1778086484 | 12.22° C | 94% | 1020.1 hPa | 0 mm | - | 315 W/m² | - |
| 1778085584 | 11.11° C | 95% | 1020.2 hPa | 0 mm | - | 371 W/m² | - |
| 1778084684 | 10.56° C | 95% | 1020.4 hPa | 0 mm | - | 113 W/m² | - |
| 1778083784 | 11.11° C | 94% | 1020.5 hPa | 0 mm | - | 158 W/m² | - |
| 1778081984 | 12.22° C | 96% | 1020.2 hPa | 0 mm | - | 267 W/m² | - |
| 1778080184 | 11.11° C | 96% | 1019.6 hPa | 0 mm | - | 216 W/m² | - |
| 1778079284 | 10° C | 96% | 1019.6 hPa | 0 mm | - | 141 W/m² | - |
| 1778078384 | 9.44° C | 96% | 1019.7 hPa | 0 mm | - | 69 W/m² | - |
| 1778077484 | 9.44° C | 96% | 1019.9 hPa | 0 mm | - | 56 W/m² | - |
| 1778074784 | 9.44° C | 96% | 1019.5 hPa | 0 mm | - | 12 W/m² | - |
| 1778068484 | 10.56° C | 95% | 1018.5 hPa | 0 mm | - | 0 W/m² | - |
| 1778060385 | 11.11° C | 94% | 1017.4 hPa | 0 mm | - | 0 W/m² | - |
| 1778058585 | 11.11° C | 94% | 1017 hPa | 0 mm | - | 0 W/m² | - |
| 1778057685 | 11.11° C | 94% | 1017 hPa | 0 mm | - | 0 W/m² | - |
| 1778056785 | 11.11° C | 94% | 1017.1 hPa | 0 mm | - | 0 W/m² | - |
| 1778055885 | 11.11° C | 94% | 1017 hPa | 0 mm | - | 0 W/m² | - |
| 1778054985 | 11.11° C | 94% | 1017.1 hPa | 0 mm | - | 0 W/m² | - |
| 1778054085 | 11.11° C | 94% | 1017 hPa | 0 mm | - | 0 W/m² | - |
| 1778053185 | 11.11° C | 93% | 1017 hPa | 0 mm | - | 0 W/m² | - |
* Rain latest hour (hover to see other rain measurements)
** Current wind speed in m/s (hover to see current wind gust speed)